sensor_id;sensor_type;location;lat;lon;timestamp;pressure;altitude;pressure_sealevel;temperature;humidity
9774;BME280;4926;42.670;23.316;2023-12-22T00:02:00;93080.81;;;1.19;100.00
9774;BME280;4926;42.670;23.316;2023-12-22T00:04:27;93082.09;;;1.32;100.00
9774;BME280;4926;42.670;23.316;2023-12-22T00:06:54;93068.16;;;1.51;100.00
9774;BME280;4926;42.670;23.316;2023-12-22T00:09:24;93060.63;;;1.40;100.00
9774;BME280;4926;42.670;23.316;2023-12-22T00:11:50;93080.00;;;1.39;100.00
9774;BME280;4926;42.670;23.316;2023-12-22T00:14:19;93069.81;;;1.27;100.00
9774;BME280;4926;42.670;23.316;2023-12-22T00:16:51;93075.06;;;1.22;100.00
9774;BME280;4926;42.670;23.316;2023-12-22T00:19:18;93052.56;;;1.06;100.00
9774;BME280;4926;42.670;23.316;2023-12-22T00:21:45;93052.84;;;0.99;100.00
9774;BME280;4926;42.670;23.316;2023-12-22T00:24:12;93046.53;;;1.00;100.00
9774;BME280;4926;42.670;23.316;2023-12-22T00:26:40;93052.03;;;1.09;100.00
9774;BME280;4926;42.670;23.316;2023-12-22T00:29:07;93056.22;;;1.05;100.00
9774;BME280;4926;42.670;23.316;2023-12-22T00:31:35;93031.88;;;1.04;100.00
9774;BME280;4926;42.670;23.316;2023-12-22T00:34:02;93026.16;;;0.87;100.00
9774;BME280;4926;42.670;23.316;2023-12-22T00:36:29;93028.00;;;0.77;100.00
9774;BME280;4926;42.670;23.316;2023-12-22T00:38:59;93009.66;;;0.72;100.00
9774;BME280;4926;42.670;23.316;2023-12-22T00:41:28;93018.78;;;0.99;100.00
9774;BME280;4926;42.670;23.316;2023-12-22T00:43:55;93015.63;;;1.02;100.00
9774;BME280;4926;42.670;23.316;2023-12-22T00:46:22;93016.19;;;0.89;100.00
9774;BME280;4926;42.670;23.316;2023-12-22T00:48:53;93020.13;;;0.82;100.00
9774;BME280;4926;42.670;23.316;2023-12-22T00:51:20;93022.44;;;1.03;100.00
9774;BME280;4926;42.670;23.316;2023-12-22T00:53:47;93000.38;;;1.25;100.00
9774;BME280;4926;42.670;23.316;2023-12-22T00:56:14;92994.03;;;1.41;100.00
9774;BME280;4926;42.670;23.316;2023-12-22T00:58:44;92998.72;;;1.49;100.00
9774;BME280;4926;42.670;23.316;2023-12-22T01:01:10;93001.50;;;1.67;100.00
9774;BME280;4926;42.670;23.316;2023-12-22T01:03:37;93000.13;;;1.80;100.00
9774;BME280;4926;42.670;23.316;2023-12-22T01:06:09;93010.81;;;1.93;100.00
9774;BME280;4926;42.670;23.316;2023-12-22T01:08:36;93011.53;;;2.04;100.00
9774;BME280;4926;42.670;23.316;2023-12-22T01:11:05;93025.66;;;2.13;100.00
9774;BME280;4926;42.670;23.316;2023-12-22T01:13:32;93023.59;;;2.05;100.00
9774;BME280;4926;42.670;23.316;2023-12-22T01:15:59;93020.44;;;2.08;100.00
9774;BME280;4926;42.670;23.316;2023-12-22T01:18:29;93010.91;;;2.17;100.00
9774;BME280;4926;42.670;23.316;2023-12-22T01:20:57;93011.41;;;2.19;100.00
9774;BME280;4926;42.670;23.316;2023-12-22T01:23:25;93016.63;;;2.24;100.00
9774;BME280;4926;42.670;23.316;2023-12-22T01:25:52;93015.56;;;2.30;100.00
9774;BME280;4926;42.670;23.316;2023-12-22T01:28:19;93004.66;;;2.13;100.00
9774;BME280;4926;42.670;23.316;2023-12-22T01:30:49;93012.41;;;2.28;100.00
9774;BME280;4926;42.670;23.316;2023-12-22T01:33:16;93003.50;;;2.24;100.00
9774;BME280;4926;42.670;23.316;2023-12-22T01:35:43;92997.63;;;2.03;100.00
9774;BME280;4926;42.670;23.316;2023-12-22T01:38:10;92984.22;;;2.05;100.00
9774;BME280;4926;42.670;23.316;2023-12-22T01:40:39;92981.66;;;1.95;100.00
9774;BME280;4926;42.670;23.316;2023-12-22T01:43:06;92972.88;;;1.76;100.00
9774;BME280;4926;42.670;23.316;2023-12-22T01:45:35;92979.63;;;1.87;100.00
9774;BME280;4926;42.670;23.316;2023-12-22T01:48:03;92967.06;;;1.79;100.00
9774;BME280;4926;42.670;23.316;2023-12-22T01:50:34;92981.59;;;2.05;100.00
9774;BME280;4926;42.670;23.316;2023-12-22T01:53:05;92963.75;;;2.07;100.00
9774;BME280;4926;42.670;23.316;2023-12-22T01:55:32;92959.50;;;1.77;100.00
9774;BME280;4926;42.670;23.316;2023-12-22T01:58:01;92974.84;;;1.99;100.00
9774;BME280;4926;42.670;23.316;2023-12-22T02:00:28;92957.50;;;2.03;100.00
9774;BME280;4926;42.670;23.316;2023-12-22T02:02:55;92967.31;;;1.82;100.00
9774;BME280;4926;42.670;23.316;2023-12-22T02:05:22;92954.13;;;1.97;100.00
9774;BME280;4926;42.670;23.316;2023-12-22T02:07:51;92952.84;;;1.90;100.00
9774;BME280;4926;42.670;23.316;2023-12-22T02:10:21;92963.97;;;2.10;100.00
9774;BME280;4926;42.670;23.316;2023-12-22T02:12:48;92948.94;;;2.21;100.00
9774;BME280;4926;42.670;23.316;2023-12-22T02:15:19;92957.00;;;2.29;100.00
9774;BME280;4926;42.670;23.316;2023-12-22T02:17:49;92949.50;;;2.18;100.00
9774;BME280;4926;42.670;23.316;2023-12-22T02:20:21;92952.69;;;2.10;100.00
9774;BME280;4926;42.670;23.316;2023-12-22T02:22:52;92948.72;;;2.17;100.00
9774;BME280;4926;42.670;23.316;2023-12-22T02:25:21;92948.25;;;2.10;100.00
9774;BME280;4926;42.670;23.316;2023-12-22T02:27:50;92940.25;;;1.92;100.00
9774;BME280;4926;42.670;23.316;2023-12-22T02:30:24;92956.38;;;2.09;100.00
9774;BME280;4926;42.670;23.316;2023-12-22T02:33:07;92955.53;;;2.18;100.00
9774;BME280;4926;42.670;23.316;2023-12-22T02:35:37;92962.91;;;2.16;100.00
9774;BME280;4926;42.670;23.316;2023-12-22T02:38:20;92939.75;;;1.90;100.00
9774;BME280;4926;42.670;23.316;2023-12-22T02:40:49;92940.66;;;2.09;100.00
9774;BME280;4926;42.670;23.316;2023-12-22T02:43:19;92947.22;;;2.06;100.00
9774;BME280;4926;42.670;23.316;2023-12-22T02:45:46;92946.13;;;2.12;100.00
9774;BME280;4926;42.670;23.316;2023-12-22T02:48:17;92954.28;;;2.11;100.00
9774;BME280;4926;42.670;23.316;2023-12-22T02:50:44;92942.19;;;2.15;100.00
9774;BME280;4926;42.670;23.316;2023-12-22T02:53:11;92935.41;;;2.09;100.00
9774;BME280;4926;42.670;23.316;2023-12-22T02:55:40;92929.13;;;2.05;100.00
9774;BME280;4926;42.670;23.316;2023-12-22T02:58:06;92918.00;;;2.18;100.00
9774;BME280;4926;42.670;23.316;2023-12-22T03:00:36;92908.19;;;2.00;100.00
9774;BME280;4926;42.670;23.316;2023-12-22T03:03:04;92910.09;;;1.89;100.00
9774;BME280;4926;42.670;23.316;2023-12-22T03:05:30;92909.34;;;1.89;100.00
9774;BME280;4926;42.670;23.316;2023-12-22T03:07:58;92904.94;;;2.13;100.00
9774;BME280;4926;42.670;23.316;2023-12-22T03:10:25;92912.09;;;2.31;100.00
9774;BME280;4926;42.670;23.316;2023-12-22T03:12:55;92913.03;;;2.45;100.00
9774;BME280;4926;42.670;23.316;2023-12-22T03:15:23;92897.75;;;2.52;100.00
9774;BME280;4926;42.670;23.316;2023-12-22T03:17:51;92908.16;;;2.62;100.00
9774;BME280;4926;42.670;23.316;2023-12-22T03:20:18;92909.06;;;2.76;100.00
9774;BME280;4926;42.670;23.316;2023-12-22T03:22:45;92908.72;;;2.83;100.00
9774;BME280;4926;42.670;23.316;2023-12-22T03:25:11;92914.44;;;2.90;100.00
9774;BME280;4926;42.670;23.316;2023-12-22T03:27:38;92917.88;;;2.85;100.00
9774;BME280;4926;42.670;23.316;2023-12-22T03:30:08;92920.06;;;2.78;100.00
9774;BME280;4926;42.670;23.316;2023-12-22T03:32:38;92922.69;;;2.78;100.00
9774;BME280;4926;42.670;23.316;2023-12-22T03:35:05;92916.44;;;2.74;100.00
9774;BME280;4926;42.670;23.316;2023-12-22T03:37:35;92930.91;;;2.72;100.00
9774;BME280;4926;42.670;23.316;2023-12-22T03:40:04;92921.53;;;2.89;100.00
9774;BME280;4926;42.670;23.316;2023-12-22T03:42:31;92915.75;;;2.87;100.00
9774;BME280;4926;42.670;23.316;2023-12-22T03:45:01;92901.00;;;2.91;100.00
9774;BME280;4926;42.670;23.316;2023-12-22T03:47:32;92915.38;;;2.99;100.00
9774;BME280;4926;42.670;23.316;2023-12-22T03:50:07;92908.06;;;2.72;100.00
9774;BME280;4926;42.670;23.316;2023-12-22T03:52:34;92908.53;;;2.51;100.00
9774;BME280;4926;42.670;23.316;2023-12-22T03:55:01;92906.75;;;2.46;100.00
9774;BME280;4926;42.670;23.316;2023-12-22T03:57:28;92920.97;;;2.40;100.00
9774;BME280;4926;42.670;23.316;2023-12-22T03:59:58;92922.31;;;2.04;100.00
9774;BME280;4926;42.670;23.316;2023-12-22T04:02:25;92912.25;;;1.82;100.00
9774;BME280;4926;42.670;23.316;2023-12-22T04:04:53;92918.28;;;1.83;100.00
9774;BME280;4926;42.670;23.316;2023-12-22T04:07:20;92913.69;;;1.98;100.00
9774;BME280;4926;42.670;23.316;2023-12-22T04:09:50;92924.06;;;2.18;100.00
9774;BME280;4926;42.670;23.316;2023-12-22T04:12:19;92917.25;;;2.12;100.00
9774;BME280;4926;42.670;23.316;2023-12-22T04:14:48;92907.53;;;2.18;100.00
9774;BME280;4926;42.670;23.316;2023-12-22T04:17:18;92923.16;;;2.28;100.00
9774;BME280;4926;42.670;23.316;2023-12-22T04:19:48;92920.16;;;2.45;100.00
9774;BME280;4926;42.670;23.316;2023-12-22T04:22:16;92907.56;;;2.42;100.00
9774;BME280;4926;42.670;23.316;2023-12-22T04:24:43;92908.25;;;2.52;100.00
9774;BME280;4926;42.670;23.316;2023-12-22T04:27:10;92908.84;;;2.73;100.00
9774;BME280;4926;42.670;23.316;2023-12-22T04:29:37;92893.50;;;2.56;100.00
9774;BME280;4926;42.670;23.316;2023-12-22T04:32:04;92907.50;;;2.75;100.00
9774;BME280;4926;42.670;23.316;2023-12-22T04:34:31;92898.00;;;2.79;100.00
9774;BME280;4926;42.670;23.316;2023-12-22T04:36:58;92895.41;;;2.98;100.00
9774;BME280;4926;42.670;23.316;2023-12-22T04:39:26;92905.59;;;3.04;100.00
9774;BME280;4926;42.670;23.316;2023-12-22T04:41:53;92889.72;;;2.91;100.00
9774;BME280;4926;42.670;23.316;2023-12-22T04:44:20;92889.03;;;2.80;100.00
9774;BME280;4926;42.670;23.316;2023-12-22T04:46:49;92882.81;;;2.76;100.00
9774;BME280;4926;42.670;23.316;2023-12-22T04:49:16;92881.88;;;2.86;100.00
9774;BME280;4926;42.670;23.316;2023-12-22T04:51:43;92881.84;;;2.67;100.00
9774;BME280;4926;42.670;23.316;2023-12-22T04:54:10;92881.13;;;2.62;100.00
9774;BME280;4926;42.670;23.316;2023-12-22T04:56:41;92885.78;;;2.41;100.00
9774;BME280;4926;42.670;23.316;2023-12-22T04:59:07;92890.94;;;2.51;100.00
9774;BME280;4926;42.670;23.316;2023-12-22T05:01:34;92885.47;;;2.71;100.00
9774;BME280;4926;42.670;23.316;2023-12-22T05:04:01;92875.41;;;2.78;100.00
9774;BME280;4926;42.670;23.316;2023-12-22T05:06:28;92859.66;;;2.55;100.00
9774;BME280;4926;42.670;23.316;2023-12-22T05:08:55;92876.59;;;2.67;100.00
9774;BME280;4926;42.670;23.316;2023-12-22T05:11:23;92859.09;;;2.58;100.00
9774;BME280;4926;42.670;23.316;2023-12-22T05:13:53;92871.94;;;2.59;100.00
9774;BME280;4926;42.670;23.316;2023-12-22T05:16:20;92864.44;;;2.71;100.00
9774;BME280;4926;42.670;23.316;2023-12-22T05:18:57;92859.25;;;2.66;100.00
9774;BME280;4926;42.670;23.316;2023-12-22T05:21:24;92855.31;;;2.69;100.00
9774;BME280;4926;42.670;23.316;2023-12-22T05:23:55;92858.09;;;2.54;100.00
9774;BME280;4926;42.670;23.316;2023-12-22T05:26:23;92860.91;;;2.62;100.00
9774;BME280;4926;42.670;23.316;2023-12-22T05:28:52;92869.03;;;2.84;100.00
9774;BME280;4926;42.670;23.316;2023-12-22T05:31:18;92836.94;;;2.40;100.00
9774;BME280;4926;42.670;23.316;2023-12-22T05:33:48;92876.66;;;2.34;100.00
9774;BME280;4926;42.670;23.316;2023-12-22T05:36:16;92896.75;;;2.48;100.00
9774;BME280;4926;42.670;23.316;2023-12-22T05:38:46;92874.09;;;2.57;100.00
9774;BME280;4926;42.670;23.316;2023-12-22T05:41:16;92874.94;;;2.48;100.00
9774;BME280;4926;42.670;23.316;2023-12-22T05:43:43;92880.22;;;2.71;100.00
9774;BME280;4926;42.670;23.316;2023-12-22T05:46:11;92874.94;;;2.48;100.00
9774;BME280;4926;42.670;23.316;2023-12-22T05:48:38;92872.94;;;2.40;100.00
9774;BME280;4926;42.670;23.316;2023-12-22T05:51:07;92852.03;;;2.29;100.00
9774;BME280;4926;42.670;23.316;2023-12-22T05:53:39;92877.50;;;2.29;100.00
9774;BME280;4926;42.670;23.316;2023-12-22T05:56:16;92868.84;;;2.52;100.00
9774;BME280;4926;42.670;23.316;2023-12-22T05:58:48;92869.03;;;2.61;100.00
9774;BME280;4926;42.670;23.316;2023-12-22T06:01:17;92858.75;;;2.41;100.00
9774;BME280;4926;42.670;23.316;2023-12-22T06:03:44;92862.78;;;2.57;100.00
9774;BME280;4926;42.670;23.316;2023-12-22T06:06:11;92861.53;;;2.49;100.00
9774;BME280;4926;42.670;23.316;2023-12-22T06:08:39;92871.66;;;2.61;100.00
9774;BME280;4926;42.670;23.316;2023-12-22T06:11:08;92878.44;;;2.43;100.00
9774;BME280;4926;42.670;23.316;2023-12-22T06:13:35;92871.47;;;2.57;100.00
9774;BME280;4926;42.670;23.316;2023-12-22T06:16:02;92876.97;;;2.56;100.00
9774;BME280;4926;42.670;23.316;2023-12-22T06:18:31;92869.22;;;2.69;100.00
9774;BME280;4926;42.670;23.316;2023-12-22T06:21:00;92874.94;;;2.76;100.00
9774;BME280;4926;42.670;23.316;2023-12-22T06:23:27;92877.63;;;2.66;100.00
9774;BME280;4926;42.670;23.316;2023-12-22T06:25:59;92889.16;;;2.70;100.00
9774;BME280;4926;42.670;23.316;2023-12-22T06:28:30;92884.47;;;2.67;100.00
9774;BME280;4926;42.670;23.316;2023-12-22T06:31:00;92877.44;;;2.86;100.00
9774;BME280;4926;42.670;23.316;2023-12-22T06:33:27;92884.34;;;2.77;100.00
9774;BME280;4926;42.670;23.316;2023-12-22T06:35:58;92891.84;;;2.65;100.00
9774;BME280;4926;42.670;23.316;2023-12-22T06:38:27;92883.34;;;2.73;100.00
9774;BME280;4926;42.670;23.316;2023-12-22T06:40:54;92896.31;;;2.88;100.00
9774;BME280;4926;42.670;23.316;2023-12-22T06:43:21;92895.81;;;2.86;100.00
9774;BME280;4926;42.670;23.316;2023-12-22T06:45:49;92898.56;;;2.76;100.00
9774;BME280;4926;42.670;23.316;2023-12-22T06:48:17;92886.97;;;2.77;100.00
9774;BME280;4926;42.670;23.316;2023-12-22T06:50:48;92893.94;;;2.92;100.00
9774;BME280;4926;42.670;23.316;2023-12-22T06:53:17;92891.59;;;2.90;100.00
9774;BME280;4926;42.670;23.316;2023-12-22T06:55:44;92892.63;;;2.89;100.00
9774;BME280;4926;42.670;23.316;2023-12-22T06:58:11;92894.97;;;2.91;100.00
9774;BME280;4926;42.670;23.316;2023-12-22T07:00:41;92877.88;;;2.93;100.00
9774;BME280;4926;42.670;23.316;2023-12-22T07:03:07;92883.47;;;2.63;100.00
9774;BME280;4926;42.670;23.316;2023-12-22T07:05:35;92894.91;;;2.72;100.00
9774;BME280;4926;42.670;23.316;2023-12-22T07:08:06;92887.94;;;2.86;100.00
9774;BME280;4926;42.670;23.316;2023-12-22T07:10:34;92898.63;;;2.95;100.00
9774;BME280;4926;42.670;23.316;2023-12-22T07:13:04;92903.91;;;3.13;100.00
9774;BME280;4926;42.670;23.316;2023-12-22T07:15:33;92899.53;;;3.27;100.00
9774;BME280;4926;42.670;23.316;2023-12-22T07:18:03;92882.50;;;3.01;100.00
9774;BME280;4926;42.670;23.316;2023-12-22T07:20:31;92903.00;;;2.99;100.00
9774;BME280;4926;42.670;23.316;2023-12-22T07:22:57;92907.50;;;2.99;100.00
9774;BME280;4926;42.670;23.316;2023-12-22T07:25:24;92911.75;;;2.95;100.00
9774;BME280;4926;42.670;23.316;2023-12-22T07:27:52;92903.22;;;3.03;100.00
9774;BME280;4926;42.670;23.316;2023-12-22T07:30:19;92913.38;;;3.14;100.00
9774;BME280;4926;42.670;23.316;2023-12-22T07:32:45;92915.44;;;3.17;100.00
9774;BME280;4926;42.670;23.316;2023-12-22T07:35:17;92915.44;;;3.17;100.00
9774;BME280;4926;42.670;23.316;2023-12-22T07:37:44;92912.94;;;3.07;100.00
9774;BME280;4926;42.670;23.316;2023-12-22T07:40:11;92916.31;;;3.31;100.00
9774;BME280;4926;42.670;23.316;2023-12-22T07:42:39;92918.88;;;3.36;100.00
9774;BME280;4926;42.670;23.316;2023-12-22T07:45:08;92908.41;;;3.31;100.00
9774;BME280;4926;42.670;23.316;2023-12-22T07:47:35;92913.69;;;3.50;100.00
9774;BME280;4926;42.670;23.316;2023-12-22T07:50:03;92926.81;;;3.31;100.00
9774;BME280;4926;42.670;23.316;2023-12-22T07:52:33;92930.63;;;3.20;100.00
9774;BME280;4926;42.670;23.316;2023-12-22T07:55:07;92923.63;;;3.34;100.00
9774;BME280;4926;42.670;23.316;2023-12-22T07:57:38;92944.56;;;3.21;100.00
9774;BME280;4926;42.670;23.316;2023-12-22T08:00:07;92946.41;;;3.20;100.00
9774;BME280;4926;42.670;23.316;2023-12-22T08:02:35;92947.06;;;3.31;100.00
9774;BME280;4926;42.670;23.316;2023-12-22T08:05:11;92955.56;;;3.47;100.00
9774;BME280;4926;42.670;23.316;2023-12-22T08:07:37;92948.97;;;3.49;100.00
9774;BME280;4926;42.670;23.316;2023-12-22T08:10:08;92951.13;;;3.23;100.00
9774;BME280;4926;42.670;23.316;2023-12-22T08:12:35;92970.41;;;3.37;100.00
9774;BME280;4926;42.670;23.316;2023-12-22T08:15:10;92973.00;;;3.61;100.00
9774;BME280;4926;42.670;23.316;2023-12-22T08:17:37;92964.25;;;3.66;100.00
9774;BME280;4926;42.670;23.316;2023-12-22T08:20:06;92984.63;;;3.79;100.00
9774;BME280;4926;42.670;23.316;2023-12-22T08:22:35;92982.56;;;3.94;100.00
9774;BME280;4926;42.670;23.316;2023-12-22T08:25:03;92973.84;;;3.99;100.00
9774;BME280;4926;42.670;23.316;2023-12-22T08:27:33;92974.47;;;4.09;100.00
9774;BME280;4926;42.670;23.316;2023-12-22T08:30:02;92982.72;;;4.21;100.00
9774;BME280;4926;42.670;23.316;2023-12-22T08:32:31;92978.41;;;4.25;100.00
9774;BME280;4926;42.670;23.316;2023-12-22T08:34:58;92978.34;;;4.30;100.00
9774;BME280;4926;42.670;23.316;2023-12-22T08:37:28;92979.25;;;4.39;100.00
9774;BME280;4926;42.670;23.316;2023-12-22T08:39:55;92980.06;;;4.03;100.00
9774;BME280;4926;42.670;23.316;2023-12-22T08:42:23;92973.88;;;3.94;100.00
9774;BME280;4926;42.670;23.316;2023-12-22T08:45:04;92967.13;;;3.88;100.00
9774;BME280;4926;42.670;23.316;2023-12-22T08:47:33;92980.34;;;4.01;100.00
9774;BME280;4926;42.670;23.316;2023-12-22T08:50:00;92964.63;;;4.15;100.00
9774;BME280;4926;42.670;23.316;2023-12-22T08:52:29;92976.16;;;4.19;100.00
9774;BME280;4926;42.670;23.316;2023-12-22T08:55:02;92978.41;;;4.25;100.00
9774;BME280;4926;42.670;23.316;2023-12-22T08:57:30;92970.38;;;4.17;100.00
9774;BME280;4926;42.670;23.316;2023-12-22T08:59:57;92970.81;;;4.24;100.00
9774;BME280;4926;42.670;23.316;2023-12-22T09:02:27;92986.81;;;4.46;100.00
9774;BME280;4926;42.670;23.316;2023-12-22T09:04:55;92981.47;;;4.51;100.00
9774;BME280;4926;42.670;23.316;2023-12-22T09:07:24;92988.13;;;4.62;100.00
9774;BME280;4926;42.670;23.316;2023-12-22T09:09:53;92993.81;;;4.69;100.00
9774;BME280;4926;42.670;23.316;2023-12-22T09:12:20;92996.50;;;4.83;100.00
9774;BME280;4926;42.670;23.316;2023-12-22T09:14:47;93001.88;;;4.91;100.00
9774;BME280;4926;42.670;23.316;2023-12-22T09:17:14;93005.78;;;4.94;100.00
9774;BME280;4926;42.670;23.316;2023-12-22T09:19:41;92994.88;;;5.00;100.00
9774;BME280;4926;42.670;23.316;2023-12-22T09:22:10;93009.53;;;5.20;100.00
9774;BME280;4926;42.670;23.316;2023-12-22T09:24:37;93004.69;;;5.27;100.00
9774;BME280;4926;42.670;23.316;2023-12-22T09:27:05;93009.84;;;5.32;100.00
9774;BME280;4926;42.670;23.316;2023-12-22T09:29:31;93003.09;;;5.12;100.00
9774;BME280;4926;42.670;23.316;2023-12-22T09:32:03;93006.75;;;4.84;100.00
9774;BME280;4926;42.670;23.316;2023-12-22T09:34:30;93006.13;;;4.74;100.00
9774;BME280;4926;42.670;23.316;2023-12-22T09:36:57;92995.31;;;4.75;100.00
9774;BME280;4926;42.670;23.316;2023-12-22T09:39:29;92995.38;;;4.70;100.00
9774;BME280;4926;42.670;23.316;2023-12-22T09:41:56;93000.25;;;4.63;100.00
9774;BME280;4926;42.670;23.316;2023-12-22T09:44:24;92988.50;;;4.55;100.00
9774;BME280;4926;42.670;23.316;2023-12-22T09:46:55;92989.50;;;4.41;100.00
9774;BME280;4926;42.670;23.316;2023-12-22T09:49:24;92994.31;;;4.39;100.00
9774;BME280;4926;42.670;23.316;2023-12-22T09:51:53;92974.72;;;4.45;100.00
9774;BME280;4926;42.670;23.316;2023-12-22T09:54:21;92984.34;;;4.68;100.00
9774;BME280;4926;42.670;23.316;2023-12-22T09:56:50;92985.41;;;4.67;100.00
9774;BME280;4926;42.670;23.316;2023-12-22T09:59:20;92979.81;;;4.87;100.00
9774;BME280;4926;42.670;23.316;2023-12-22T10:01:50;92972.41;;;4.89;100.00
9774;BME280;4926;42.670;23.316;2023-12-22T10:04:17;92966.44;;;4.84;100.00
9774;BME280;4926;42.670;23.316;2023-12-22T10:06:46;92974.16;;;4.94;100.00
9774;BME280;4926;42.670;23.316;2023-12-22T10:09:15;92965.81;;;5.19;100.00
9774;BME280;4926;42.670;23.316;2023-12-22T10:11:43;92960.91;;;5.26;100.00
9774;BME280;4926;42.670;23.316;2023-12-22T10:14:12;92966.97;;;5.40;100.00
9774;BME280;4926;42.670;23.316;2023-12-22T10:16:46;92962.69;;;5.57;100.00
9774;BME280;4926;42.670;23.316;2023-12-22T10:19:13;92959.22;;;5.70;100.00
9774;BME280;4926;42.670;23.316;2023-12-22T10:21:42;92940.19;;;5.87;100.00
9774;BME280;4926;42.670;23.316;2023-12-22T10:24:37;92934.75;;;6.06;100.00
9774;BME280;4926;42.670;23.316;2023-12-22T10:27:05;92936.44;;;6.24;100.00
9774;BME280;4926;42.670;23.316;2023-12-22T10:29:34;92929.50;;;6.28;100.00
9774;BME280;4926;42.670;23.316;2023-12-22T10:32:01;92925.13;;;6.45;100.00
9774;BME280;4926;42.670;23.316;2023-12-22T10:34:28;92920.59;;;6.68;100.00
9774;BME280;4926;42.670;23.316;2023-12-22T10:36:58;92924.13;;;6.86;100.00
9774;BME280;4926;42.670;23.316;2023-12-22T10:39:27;92916.47;;;6.84;100.00
9774;BME280;4926;42.670;23.316;2023-12-22T10:41:55;92905.66;;;6.94;100.00
9774;BME280;4926;42.670;23.316;2023-12-22T10:44:24;92899.00;;;7.05;100.00
9774;BME280;4926;42.670;23.316;2023-12-22T10:46:52;92895.69;;;7.30;100.00
9774;BME280;4926;42.670;23.316;2023-12-22T10:49:25;92889.19;;;7.45;100.00
9774;BME280;4926;42.670;23.316;2023-12-22T10:51:52;92866.91;;;7.37;100.00
9774;BME280;4926;42.670;23.316;2023-12-22T10:54:19;92876.13;;;7.57;100.00
9774;BME280;4926;42.670;23.316;2023-12-22T10:56:49;92882.88;;;7.71;100.00
9774;BME280;4926;42.670;23.316;2023-12-22T10:59:16;92866.03;;;7.84;100.00
9774;BME280;4926;42.670;23.316;2023-12-22T11:01:45;92857.63;;;7.82;100.00
9774;BME280;4926;42.670;23.316;2023-12-22T11:04:18;92869.63;;;7.97;100.00
9774;BME280;4926;42.670;23.316;2023-12-22T11:06:49;92853.44;;;7.99;100.00
9774;BME280;4926;42.670;23.316;2023-12-22T11:09:21;92871.03;;;7.94;100.00
9774;BME280;4926;42.670;23.316;2023-12-22T11:11:51;92871.34;;;7.93;100.00
9774;BME280;4926;42.670;23.316;2023-12-22T11:14:19;92848.28;;;7.93;100.00
9774;BME280;4926;42.670;23.316;2023-12-22T11:16:47;92833.66;;;8.05;100.00
9774;BME280;4926;42.670;23.316;2023-12-22T11:19:18;92837.03;;;8.14;100.00
9774;BME280;4926;42.670;23.316;2023-12-22T11:21:45;92833.94;;;8.20;100.00
9774;BME280;4926;42.670;23.316;2023-12-22T11:24:14;92821.19;;;8.31;100.00
9774;BME280;4926;42.670;23.316;2023-12-22T11:26:42;92833.78;;;8.34;100.00
9774;BME280;4926;42.670;23.316;2023-12-22T11:29:10;92837.38;;;8.38;100.00
9774;BME280;4926;42.670;23.316;2023-12-22T11:31:37;92838.47;;;8.37;100.00
9774;BME280;4926;42.670;23.316;2023-12-22T11:34:07;92856.69;;;8.47;100.00
9774;BME280;4926;42.670;23.316;2023-12-22T11:36:38;92856.69;;;8.55;100.00
9774;BME280;4926;42.670;23.316;2023-12-22T11:39:05;92866.50;;;8.55;100.00
9774;BME280;4926;42.670;23.316;2023-12-22T11:41:34;92856.38;;;8.40;100.00
9774;BME280;4926;42.670;23.316;2023-12-22T11:44:06;92877.88;;;8.47;100.00
9774;BME280;4926;42.670;23.316;2023-12-22T11:46:37;92888.34;;;8.52;100.00
9774;BME280;4926;42.670;23.316;2023-12-22T11:49:04;92881.34;;;8.39;100.00
9774;BME280;4926;42.670;23.316;2023-12-22T11:51:34;92903.19;;;8.36;100.00
9774;BME280;4926;42.670;23.316;2023-12-22T11:54:02;92881.34;;;8.30;100.00
9774;BME280;4926;42.670;23.316;2023-12-22T11:56:30;92884.47;;;8.24;100.00
9774;BME280;4926;42.670;23.316;2023-12-22T11:58:57;92886.81;;;8.25;100.00
9774;BME280;4926;42.670;23.316;2023-12-22T12:01:27;92886.97;;;8.29;100.00
9774;BME280;4926;42.670;23.316;2023-12-22T12:03:57;92898.19;;;8.26;100.00
9774;BME280;4926;42.670;23.316;2023-12-22T12:06:33;92880.41;;;8.26;100.00
9774;BME280;4926;42.670;23.316;2023-12-22T12:09:05;92881.03;;;8.15;100.00
9774;BME280;4926;42.670;23.316;2023-12-22T12:12:09;92878.06;;;8.25;100.00
9774;BME280;4926;42.670;23.316;2023-12-22T12:14:41;92905.06;;;8.27;98.77
9774;BME280;4926;42.670;23.316;2023-12-22T12:17:10;92883.66;;;8.23;98.14
9774;BME280;4926;42.670;23.316;2023-12-22T12:19:38;92890.03;;;7.97;98.92
9774;BME280;4926;42.670;23.316;2023-12-22T12:22:08;92876.63;;;7.93;98.58
9774;BME280;4926;42.670;23.316;2023-12-22T12:24:37;92876.00;;;7.87;97.92
9774;BME280;4926;42.670;23.316;2023-12-22T12:27:07;92865.09;;;7.80;97.54
9774;BME280;4926;42.670;23.316;2023-12-22T12:29:39;92851.53;;;7.73;97.69
9774;BME280;4926;42.670;23.316;2023-12-22T12:32:06;92861.06;;;7.74;97.61
9774;BME280;4926;42.670;23.316;2023-12-22T12:34:33;92857.94;;;7.81;97.78
9774;BME280;4926;42.670;23.316;2023-12-22T12:37:02;92850.47;;;7.74;96.85
9774;BME280;4926;42.670;23.316;2023-12-22T12:39:30;92830.34;;;7.73;96.12
9774;BME280;4926;42.670;23.316;2023-12-22T12:42:01;92842.03;;;7.72;94.58
9774;BME280;4926;42.670;23.316;2023-12-22T12:44:29;92836.75;;;7.72;94.30
9774;BME280;4926;42.670;23.316;2023-12-22T12:46:58;92807.31;;;7.74;93.24
9774;BME280;4926;42.670;23.316;2023-12-22T12:49:25;92814.03;;;7.71;93.47
9774;BME280;4926;42.670;23.316;2023-12-22T12:51:55;92820.84;;;7.72;93.53
9774;BME280;4926;42.670;23.316;2023-12-22T12:54:23;92829.28;;;7.74;92.73
9774;BME280;4926;42.670;23.316;2023-12-22T12:56:50;92837.38;;;7.78;92.91
9774;BME280;4926;42.670;23.316;2023-12-22T12:59:20;92848.88;;;7.82;91.58
9774;BME280;4926;42.670;23.316;2023-12-22T13:01:49;92861.06;;;7.91;89.27
9774;BME280;4926;42.670;23.316;2023-12-22T13:04:16;92867.59;;;7.85;87.98
9774;BME280;4926;42.670;23.316;2023-12-22T13:06:52;92864.94;;;7.85;88.48
9774;BME280;4926;42.670;23.316;2023-12-22T13:09:31;92869.47;;;7.76;85.07
9774;BME280;4926;42.670;23.316;2023-12-22T13:12:00;92859.78;;;7.80;84.48
9774;BME280;4926;42.670;23.316;2023-12-22T13:14:28;92848.88;;;7.73;85.73
9774;BME280;4926;42.670;23.316;2023-12-22T13:16:57;92858.25;;;7.71;86.58
9774;BME280;4926;42.670;23.316;2023-12-22T13:19:24;92868.53;;;7.72;86.40
9774;BME280;4926;42.670;23.316;2023-12-22T13:21:52;92879.44;;;7.71;84.96